Time;durP1;ratioP1;P1;durP2;ratioP2;P2;SDS_P1;SDS_P2;PMS_P1;PMS_P2;Temp;Humidity;BMP_temperature;BMP_pressure;BME280_temperature;BME280_humidity;BME280_pressure;Samples;Min_cycle;Max_cycle;Signal;HPM_P1;HPM_P2
2021/11/16 00:02:07;;;;;;;48.20;27.95;;;6.50;99.90;;;;;;5041537;28;20068;-75
2021/11/16 00:04:33;;;;;;;51.38;29.60;;;6.50;99.90;;;;;;5036472;28;20026;-74
2021/11/16 00:06:59;;;;;;;46.15;27.75;;;6.60;99.90;;;;;;5041753;28;20017;-74
2021/11/16 00:09:24;;;;;;;47.55;27.10;;;6.50;99.90;;;;;;5043180;28;20033;-74
2021/11/16 00:11:50;;;;;;;48.40;28.70;;;6.50;99.90;;;;;;5041990;28;20023;-74
2021/11/16 00:14:17;;;;;;;44.85;28.30;;;6.50;99.90;;;;;;5042051;28;20056;-75
2021/11/16 00:16:43;;;;;;;48.63;28.67;;;6.50;99.90;;;;;;5043111;28;20067;-75
2021/11/16 00:19:13;;;;;;;45.97;28.60;;;6.50;99.90;;;;;;5039734;28;20029;-75
2021/11/16 00:21:40;;;;;;;47.85;28.85;;;6.50;99.90;;;;;;5044155;28;20115;-75
2021/11/16 00:24:12;;;;;;;50.25;30.30;;;6.50;99.90;;;;;;5040203;28;20024;-75
2021/11/16 00:26:38;;;;;;;49.00;28.67;;;6.40;99.90;;;;;;5034875;28;20672;-75
2021/11/16 00:29:04;;;;;;;46.50;28.33;;;6.40;99.90;;;;;;5039863;28;20040;-75
2021/11/16 00:31:32;;;;;;;50.63;28.77;;;6.50;99.90;;;;;;5043940;28;20060;-74
2021/11/16 00:33:59;;;;;;;45.35;28.17;;;6.50;99.90;;;;;;5045927;28;20017;-74
2021/11/16 00:36:25;;;;;;;47.20;27.58;;;6.50;99.90;;;;;;5040739;28;20017;-74
2021/11/16 00:38:51;;;;;;;47.53;29.10;;;6.50;99.90;;;;;;5043967;28;20124;-74
2021/11/16 00:41:17;;;;;;;49.40;27.83;;;6.90;99.90;;;;;;5033975;28;20030;-74
2021/11/16 00:43:42;;;;;;;49.05;28.98;;;6.60;99.90;;;;;;5041950;28;20108;-74
2021/11/16 00:46:08;;;;;;;54.38;30.83;;;6.50;99.90;;;;;;5042726;28;20483;-74
2021/11/16 00:48:34;;;;;;;51.45;29.70;;;6.50;99.90;;;;;;5042929;28;20020;-74
2021/11/16 00:51:03;;;;;;;47.88;28.98;;;6.50;99.90;;;;;;5042001;28;20021;-74
2021/11/16 00:53:31;;;;;;;47.70;28.77;;;6.40;99.90;;;;;;5042515;28;20025;-73
2021/11/16 00:55:58;;;;;;;54.03;30.85;;;6.50;99.90;;;;;;5040230;28;20021;-73
2021/11/16 00:58:24;;;;;;;49.83;30.10;;;6.40;99.90;;;;;;5041465;28;20037;-74
2021/11/16 01:00:50;;;;;;;51.50;30.50;;;6.40;99.90;;;;;;5044071;28;20252;-74
2021/11/16 01:03:17;;;;;;;48.60;28.67;;;6.40;99.90;;;;;;5039293;28;20021;-74
2021/11/16 01:05:44;;;;;;;46.65;28.52;;;6.40;99.90;;;;;;5043126;28;20025;-74
2021/11/16 01:08:11;;;;;;;47.67;27.65;;;6.40;99.90;;;;;;5039631;28;20422;-74
2021/11/16 01:10:38;;;;;;;49.90;29.67;;;6.50;99.90;;;;;;5043898;28;20032;-74
2021/11/16 01:13:04;;;;;;;52.33;30.77;;;6.40;99.90;;;;;;5048011;28;20025;-74
2021/11/16 01:15:31;;;;;;;54.88;30.95;;;6.40;99.90;;;;;;5043112;28;20498;-74
2021/11/16 01:17:57;;;;;;;50.22;31.13;;;6.40;99.90;;;;;;5046643;28;20021;-74
2021/11/16 01:20:23;;;;;;;51.67;29.92;;;6.40;99.90;;;;;;5044264;28;20036;-74
2021/11/16 01:22:51;;;;;;;51.88;30.05;;;6.40;99.90;;;;;;5044609;28;20467;-74
2021/11/16 01:25:18;;;;;;;51.90;29.48;;;6.40;99.90;;;;;;5044982;28;20017;-73
2021/11/16 01:27:44;;;;;;;53.05;30.85;;;6.40;99.90;;;;;;5044376;28;20459;-74
2021/11/16 01:30:13;;;;;;;54.17;30.63;;;6.40;99.90;;;;;;5044271;28;20060;-74
2021/11/16 01:35:08;;;;;;;51.80;29.88;;;6.50;99.90;;;;;;5042599;28;20021;-74
2021/11/16 01:37:35;;;;;;;47.40;28.90;;;6.50;99.90;;;;;;5045963;28;20017;-74
2021/11/16 01:40:02;;;;;;;48.35;29.30;;;6.30;99.90;;;;;;5045380;28;20020;-74
2021/11/16 01:42:27;;;;;;;50.85;30.58;;;6.30;99.90;;;;;;5043857;28;20025;-74
2021/11/16 01:44:53;;;;;;;53.13;31.20;;;6.30;99.90;;;;;;5043426;28;20762;-74
2021/11/16 01:47:19;;;;;;;48.75;31.25;;;6.30;99.90;;;;;;5049714;28;20013;-74
2021/11/16 01:49:45;;;;;;;52.75;31.50;;;6.30;99.90;;;;;;5041051;28;20021;-74
2021/11/16 01:52:11;;;;;;;50.28;30.00;;;6.30;99.90;;;;;;5048134;28;20028;-75
2021/11/16 01:54:37;;;;;;;57.58;31.42;;;6.30;99.90;;;;;;5033946;28;20025;-74
2021/11/16 01:57:03;;;;;;;51.30;30.45;;;6.30;99.90;;;;;;5032768;28;20120;-74
2021/11/16 01:59:29;;;;;;;48.83;29.08;;;6.20;99.90;;;;;;5033998;28;20087;-74
2021/11/16 02:01:56;;;;;;;48.25;29.27;;;6.20;99.90;;;;;;5033896;28;20056;-74
2021/11/16 02:04:22;;;;;;;53.50;29.52;;;6.20;99.90;;;;;;5020744;28;20096;-74
2021/11/16 02:06:49;;;;;;;47.67;29.65;;;6.30;99.90;;;;;;5023370;28;20548;-74
2021/11/16 02:09:16;;;;;;;48.63;29.90;;;6.30;99.90;;;;;;5027504;28;20030;-75
2021/11/16 02:11:43;;;;;;;52.00;30.40;;;6.20;99.90;;;;;;5024523;28;20530;-74
2021/11/16 02:14:12;;;;;;;52.17;30.73;;;6.30;99.90;;;;;;5033835;28;20483;-75
2021/11/16 02:16:39;;;;;;;49.33;29.65;;;6.30;99.90;;;;;;5033816;28;20075;-75
2021/11/16 02:19:06;;;;;;;54.10;31.25;;;6.30;99.90;;;;;;5019193;28;20029;-74
2021/11/16 02:21:32;;;;;;;55.05;32.50;;;6.40;99.90;;;;;;5022330;28;20018;-74
2021/11/16 02:23:59;;;;;;;51.13;30.25;;;6.40;99.90;;;;;;5031217;28;20026;-75
2021/11/16 02:26:25;;;;;;;57.60;32.15;;;6.40;99.90;;;;;;5021402;28;20019;-74
2021/11/16 02:28:51;;;;;;;51.70;31.42;;;6.30;99.90;;;;;;5027139;28;20034;-74
2021/11/16 02:31:17;;;;;;;56.63;33.55;;;6.40;99.90;;;;;;5024314;28;20026;-74
2021/11/16 02:33:44;;;;;;;55.55;31.65;;;6.30;99.90;;;;;;5032231;28;20500;-74
2021/11/16 02:36:10;;;;;;;55.28;31.90;;;6.20;99.90;;;;;;5019744;28;20030;-75
2021/11/16 02:38:36;;;;;;;57.45;32.78;;;6.30;99.90;;;;;;5036430;28;20400;-75
2021/11/16 02:41:03;;;;;;;58.25;33.42;;;6.20;99.90;;;;;;5033158;28;20021;-75
2021/11/16 02:43:30;;;;;;;53.22;31.73;;;6.20;99.90;;;;;;5032655;28;20025;-74
2021/11/16 02:45:56;;;;;;;57.63;32.97;;;6.10;99.90;;;;;;5031921;28;20530;-73
2021/11/16 02:48:22;;;;;;;60.78;34.53;;;6.10;99.90;;;;;;5026814;28;20131;-74
2021/11/16 02:50:52;;;;;;;55.78;32.60;;;6.20;99.90;;;;;;5026192;28;20021;-74
2021/11/16 02:53:18;;;;;;;57.22;33.30;;;6.10;99.90;;;;;;5020832;28;20390;-75
2021/11/16 02:55:44;;;;;;;61.00;33.97;;;6.20;99.90;;;;;;5033365;28;20022;-74
2021/11/16 02:58:11;;;;;;;56.92;33.22;;;6.10;99.90;;;;;;5032867;28;20087;-74
2021/11/16 03:00:38;;;;;;;54.72;32.78;;;6.10;99.90;;;;;;5032636;28;20033;-75
2021/11/16 03:03:04;;;;;;;58.05;32.60;;;6.10;99.90;;;;;;5020153;28;20380;-75
2021/11/16 03:05:35;;;;;;;56.40;33.03;;;6.10;99.90;;;;;;5018227;28;20033;-75
2021/11/16 03:08:09;;;;;;;57.05;31.92;;;6.00;99.90;;;;;;5013237;28;20021;-75
2021/11/16 03:10:34;;;;;;;54.60;32.17;;;6.00;99.90;;;;;;5028139;28;20539;-75
2021/11/16 03:13:00;;;;;;;52.78;32.05;;;6.10;99.90;;;;;;5023000;28;20120;-75
2021/11/16 03:15:26;;;;;;;52.95;31.63;;;6.10;99.90;;;;;;5026353;28;20104;-75
2021/11/16 03:17:52;;;;;;;51.58;29.95;;;6.10;99.90;;;;;;5021455;28;20123;-75
2021/11/16 03:20:18;;;;;;;56.08;32.85;;;6.10;99.90;;;;;;5030646;28;20021;-75
2021/11/16 03:22:53;;;;;;;53.17;31.80;;;6.20;99.90;;;;;;5021402;28;20021;-75
2021/11/16 03:25:24;;;;;;;50.85;30.98;;;6.10;99.90;;;;;;5019239;28;20104;-74
2021/11/16 03:27:55;;;;;;;49.88;29.70;;;6.10;99.90;;;;;;5031147;28;20026;-74
2021/11/16 03:30:22;;;;;;;55.92;31.92;;;6.10;99.90;;;;;;5030988;28;20026;-75
2021/11/16 03:32:48;;;;;;;50.28;30.17;;;6.10;99.90;;;;;;5020928;28;20361;-74
2021/11/16 03:35:14;;;;;;;45.40;28.55;;;6.10;99.90;;;;;;5016096;28;20037;-75
2021/11/16 03:37:44;;;;;;;48.20;29.45;;;6.10;99.90;;;;;;5020469;28;20027;-75
2021/11/16 03:40:11;;;;;;;51.58;30.58;;;6.10;99.90;;;;;;5025850;28;20519;-75
2021/11/16 03:42:41;;;;;;;51.38;29.90;;;6.20;99.90;;;;;;5024930;28;20030;-75
2021/11/16 03:45:09;;;;;;;46.70;29.95;;;6.10;99.90;;;;;;5026498;28;20026;-75
2021/11/16 03:47:35;;;;;;;48.58;28.33;;;6.00;99.90;;;;;;5013019;28;20425;-75
2021/11/16 03:50:01;;;;;;;51.03;29.30;;;5.90;99.90;;;;;;5042161;28;20476;-75
2021/11/16 03:52:26;;;;;;;54.55;29.73;;;5.80;99.90;;;;;;5045134;28;20041;-74
2021/11/16 03:54:53;;;;;;;46.53;28.52;;;5.80;99.90;;;;;;5024828;28;20119;-75
2021/11/16 03:57:19;;;;;;;49.15;29.98;;;5.90;99.90;;;;;;5024940;28;20029;-74
2021/11/16 03:59:44;;;;;;;50.65;30.13;;;5.80;99.90;;;;;;5031892;28;20040;-75
2021/11/16 04:02:11;;;;;;;49.47;28.73;;;5.90;99.90;;;;;;5031781;28;20018;-74
2021/11/16 04:04:37;;;;;;;53.33;29.88;;;5.80;99.90;;;;;;5032042;28;20017;-74
2021/11/16 04:07:03;;;;;;;55.58;31.45;;;5.70;99.90;;;;;;5019165;28;20014;-75
2021/11/16 04:09:28;;;;;;;52.20;30.35;;;5.80;99.90;;;;;;5025298;28;20036;-74
2021/11/16 04:11:54;;;;;;;47.05;28.73;;;5.80;99.90;;;;;;5011868;28;20034;-74
2021/11/16 04:14:19;;;;;;;52.80;30.77;;;5.80;99.90;;;;;;5017948;28;20088;-74
2021/11/16 04:16:45;;;;;;;45.70;28.92;;;5.80;99.90;;;;;;5031791;28;20025;-75
2021/11/16 04:19:12;;;;;;;52.45;30.58;;;5.80;99.90;;;;;;5030459;28;20478;-74
2021/11/16 04:21:38;;;;;;;51.50;31.13;;;5.80;99.90;;;;;;5031381;28;20100;-73
2021/11/16 04:24:04;;;;;;;56.10;31.98;;;5.80;99.90;;;;;;5031686;28;20627;-74
2021/11/16 04:26:29;;;;;;;50.05;30.17;;;5.80;99.90;;;;;;5031589;28;20022;-74
2021/11/16 04:28:55;;;;;;;51.65;30.48;;;5.90;99.90;;;;;;5012699;28;20373;-74
2021/11/16 04:31:20;;;;;;;54.50;30.95;;;5.90;99.90;;;;;;5011702;28;20365;-74
2021/11/16 04:33:46;;;;;;;54.40;31.30;;;6.00;99.90;;;;;;5017735;28;20109;-74
2021/11/16 04:36:13;;;;;;;56.67;33.08;;;6.20;99.90;;;;;;5031488;28;20498;-74
2021/11/16 04:38:39;;;;;;;54.03;32.67;;;6.00;99.90;;;;;;5012270;28;20045;-73
2021/11/16 04:41:04;;;;;;;52.22;32.53;;;6.00;99.90;;;;;;5011666;28;20057;-74
2021/11/16 04:43:31;;;;;;;51.60;30.77;;;5.90;99.90;;;;;;5030967;28;20022;-75
2021/11/16 04:46:04;;;;;;;55.22;31.73;;;5.90;99.90;;;;;;5031473;28;20071;-73
2021/11/16 05:04:17;;;;;;;58.35;33.88;;;5.80;99.90;;;;;;5028999;28;20077;-73
2021/11/16 05:06:43;;;;;;;60.75;33.65;;;5.70;99.90;;;;;;5025937;28;20049;-73
2021/11/16 05:09:09;;;;;;;61.15;33.75;;;5.70;99.90;;;;;;5017972;28;20029;-73
2021/11/16 05:11:35;;;;;;;56.10;33.17;;;5.60;99.90;;;;;;5015090;28;20030;-73
2021/11/16 05:14:01;;;;;;;59.40;33.97;;;5.60;99.90;;;;;;5028391;28;20025;-73
2021/11/16 05:16:26;;;;;;;59.70;33.75;;;5.60;99.90;;;;;;5025370;28;20021;-73
2021/11/16 05:18:52;;;;;;;59.28;33.83;;;5.50;99.90;;;;;;5021624;28;20021;-73
2021/11/16 05:21:18;;;;;;;59.63;34.58;;;5.60;99.90;;;;;;5024708;28;20022;-73
2021/11/16 05:23:53;;;;;;;52.38;32.28;;;5.50;99.90;;;;;;5030083;28;20081;-73
2021/11/16 05:26:19;;;;;;;53.60;32.22;;;5.60;99.90;;;;;;5013660;28;20591;-73
2021/11/16 05:28:45;;;;;;;54.55;31.70;;;5.60;99.90;;;;;;5014965;28;20021;-73
2021/11/16 05:31:11;;;;;;;56.08;31.95;;;5.60;99.90;;;;;;5025040;28;20026;-74
2021/11/16 05:33:37;;;;;;;56.60;31.27;;;5.60;99.90;;;;;;5034442;28;20099;-73
2021/11/16 05:36:03;;;;;;;56.10;31.45;;;5.60;99.90;;;;;;5034790;28;20098;-74
2021/11/16 05:38:34;;;;;;;57.60;32.10;;;5.60;99.90;;;;;;5028463;28;20050;-73
2021/11/16 05:41:01;;;;;;;56.30;31.35;;;5.60;99.90;;;;;;5026610;28;20033;-75
2021/11/16 05:43:28;;;;;;;54.53;31.60;;;5.60;99.90;;;;;;5029027;28;20034;-75
2021/11/16 05:45:55;;;;;;;56.05;33.05;;;5.60;99.90;;;;;;5025506;28;20029;-73
2021/11/16 05:48:22;;;;;;;54.75;32.47;;;5.60;99.90;;;;;;5015489;28;20114;-73
2021/11/16 05:50:48;;;;;;;60.92;34.13;;;5.70;99.90;;;;;;5026330;28;20013;-73
2021/11/16 05:53:15;;;;;;;55.80;31.77;;;5.70;99.90;;;;;;5020832;28;20017;-73
2021/11/16 05:55:43;;;;;;;53.58;30.55;;;5.70;99.90;;;;;;5020987;28;20029;-74
2021/11/16 05:58:12;;;;;;;62.60;33.50;;;5.60;99.90;;;;;;5026222;28;20034;-75
2021/11/16 06:00:39;;;;;;;61.88;33.25;;;5.60;99.90;;;;;;5025602;28;20041;-74
2021/11/16 06:03:04;;;;;;;55.17;32.70;;;5.70;99.90;;;;;;5020809;28;20072;-74
2021/11/16 06:05:30;;;;;;;60.83;34.30;;;5.70;99.90;;;;;;5021502;28;20021;-74
2021/11/16 06:07:55;;;;;;;58.60;32.65;;;5.70;99.90;;;;;;5027233;28;20072;-74
2021/11/16 06:10:21;;;;;;;57.97;33.20;;;5.60;99.90;;;;;;5014059;28;20030;-73
2021/11/16 06:12:46;;;;;;;58.08;33.10;;;5.60;99.90;;;;;;5014035;28;20026;-74
2021/11/16 06:15:12;;;;;;;55.80;31.48;;;5.60;99.90;;;;;;5014216;28;20045;-74
2021/11/16 06:17:42;;;;;;;51.97;31.50;;;5.60;99.90;;;;;;5032894;28;20030;-74
2021/11/16 06:20:09;;;;;;;60.13;33.42;;;5.50;99.90;;;;;;5021195;28;20563;-74
2021/11/16 06:22:34;;;;;;;54.35;32.28;;;5.50;99.90;;;;;;5031665;28;20026;-74
2021/11/16 06:25:00;;;;;;;53.38;30.98;;;5.60;99.90;;;;;;5019983;28;20537;-74
2021/11/16 06:27:26;;;;;;;53.60;32.30;;;5.60;99.90;;;;;;5032683;28;20021;-74
2021/11/16 06:29:51;;;;;;;54.22;32.03;;;5.50;99.90;;;;;;5021512;28;20586;-74
2021/11/16 06:32:17;;;;;;;53.95;32.08;;;5.50;99.90;;;;;;5032439;28;20033;-74
2021/11/16 06:34:42;;;;;;;55.90;32.67;;;5.60;99.90;;;;;;5049013;28;20037;-74
2021/11/16 06:37:08;;;;;;;61.08;33.58;;;5.50;99.90;;;;;;5033600;28;20025;-74
2021/11/16 06:39:34;;;;;;;58.53;32.28;;;5.60;99.90;;;;;;5032800;28;20105;-74
2021/11/16 06:42:01;;;;;;;55.53;32.28;;;5.60;99.90;;;;;;5013456;28;20034;-76
2021/11/16 06:44:27;;;;;;;53.67;30.67;;;5.60;99.90;;;;;;5027073;28;20017;-74
2021/11/16 06:46:54;;;;;;;54.72;31.48;;;5.60;99.90;;;;;;5013451;28;20026;-74
2021/11/16 06:49:20;;;;;;;58.88;32.78;;;5.50;99.90;;;;;;5014104;28;20030;-74
2021/11/16 06:51:48;;;;;;;54.42;33.40;;;5.70;99.90;;;;;;5032880;28;20029;-74
2021/11/16 06:54:19;;;;;;;58.17;34.13;;;5.60;99.90;;;;;;5032983;28;20666;-74
2021/11/16 06:56:48;;;;;;;59.92;34.70;;;5.60;99.90;;;;;;5024117;28;20025;-74
2021/11/16 06:59:14;;;;;;;66.07;35.28;;;5.60;99.90;;;;;;5028814;28;20032;-74
2021/11/16 07:01:40;;;;;;;61.88;34.53;;;5.50;99.90;;;;;;5031367;28;20018;-74
2021/11/16 07:04:10;;;;;;;57.08;33.90;;;5.50;99.90;;;;;;5019833;28;20048;-74
2021/11/16 07:06:46;;;;;;;62.08;35.95;;;5.60;99.90;;;;;;5032818;28;20021;-74
2021/11/16 07:09:14;;;;;;;59.58;34.65;;;5.60;99.90;;;;;;5014813;28;20033;-74
2021/11/16 07:11:47;;;;;;;67.60;35.33;;;5.70;99.90;;;;;;5011415;28;20113;-74
2021/11/16 07:14:15;;;;;;;63.33;34.97;;;5.70;99.90;;;;;;5011748;28;20036;-74
2021/11/16 07:17:01;;;;;;;65.68;37.85;;;5.60;99.90;;;;;;5025909;28;20098;-74
2021/11/16 07:19:40;;;;;;;66.28;38.15;;;5.60;99.90;;;;;;5021882;28;20022;-73
2021/11/16 07:22:08;;;;;;;66.50;36.78;;;5.70;99.90;;;;;;5028616;28;20033;-74
2021/11/16 07:24:45;;;;;;;61.75;36.13;;;5.60;99.90;;;;;;5013409;28;20049;-75
2021/11/16 07:27:12;;;;;;;63.50;36.70;;;5.70;99.90;;;;;;5032458;28;20028;-74
2021/11/16 07:29:51;;;;;;;67.55;39.10;;;5.90;99.90;;;;;;5018577;28;20120;-74
2021/11/16 07:32:22;;;;;;;63.85;36.33;;;5.90;99.90;;;;;;5032874;28;20033;-74
2021/11/16 07:34:50;;;;;;;57.33;33.88;;;5.90;99.90;;;;;;5030630;28;20540;-74
2021/11/16 07:37:28;;;;;;;62.20;36.95;;;5.80;99.90;;;;;;5032674;28;20028;-74
2021/11/16 07:40:06;;;;;;;66.47;37.83;;;5.70;99.90;;;;;;5018295;28;20033;-74
2021/11/16 07:42:45;;;;;;;63.03;35.92;;;5.90;99.90;;;;;;5033146;28;20051;-74
2021/11/16 07:45:14;;;;;;;63.22;37.75;;;5.90;99.90;;;;;;5031994;28;20033;-74
2021/11/16 07:48:00;;;;;;;64.90;35.90;;;6.00;99.90;;;;;;5032906;28;20021;-75
2021/11/16 07:50:28;;;;;;;;;;;6.00;99.90;;;;;;5022443;28;20124;-75
2021/11/16 07:52:55;;;;;;;67.35;39.50;;;6.00;99.90;;;;;;5021553;28;19905;-75
2021/11/16 07:55:26;;;;;;;65.63;39.97;;;6.00;99.90;;;;;;5023771;28;20029;-75
2021/11/16 07:57:54;;;;;;;66.03;39.88;;;6.10;99.90;;;;;;5025844;28;20131;-73
2021/11/16 08:00:24;;;;;;;63.80;36.33;;;6.10;99.90;;;;;;5022664;28;20028;-75
2021/11/16 08:02:57;;;;;;;66.55;37.35;;;6.00;99.90;;;;;;5027442;28;20578;-75
2021/11/16 08:06:14;;;;;;;55.72;33.50;;;6.20;99.90;;;;;;5025111;28;20018;-75
2021/11/16 08:13:53;;;;;;;61.65;35.00;;;6.30;99.90;;;;;;5025726;28;20025;-75
2021/11/16 08:16:19;;;;;;;60.65;35.35;;;6.30;99.90;;;;;;5012223;28;20026;-75
2021/11/16 08:18:46;;;;;;;64.20;36.83;;;6.30;99.90;;;;;;5025545;28;20034;-75
2021/11/16 08:21:14;;;;;;;68.60;39.05;;;6.20;99.90;;;;;;5020031;28;20025;-75
2021/11/16 08:23:46;;;;;;;61.70;36.13;;;6.20;99.90;;;;;;5017205;28;20112;-75
2021/11/16 08:26:12;;;;;;;67.25;40.22;;;6.30;99.90;;;;;;5020868;28;20104;-75
2021/11/16 08:28:37;;;;;;;62.47;36.22;;;6.10;99.90;;;;;;5015583;28;20476;-75
2021/11/16 08:31:03;;;;;;;63.92;37.80;;;6.00;99.90;;;;;;5021982;28;20496;-75
2021/11/16 08:33:29;;;;;;;63.00;37.55;;;6.10;99.90;;;;;;5028401;28;20088;-74
2021/11/16 08:35:54;;;;;;;65.60;36.70;;;6.10;99.90;;;;;;5021799;28;20029;-75
2021/11/16 08:38:21;;;;;;;63.35;36.63;;;6.00;99.90;;;;;;5025285;28;20025;-75
2021/11/16 08:40:46;;;;;;;69.00;37.13;;;6.00;99.90;;;;;;5021970;28;20026;-75
2021/11/16 08:43:15;;;;;;;65.22;36.85;;;5.90;99.90;;;;;;5017115;28;20025;-75
2021/11/16 08:45:47;;;;;;;61.65;35.67;;;5.80;99.90;;;;;;5031698;28;20372;-75
2021/11/16 08:48:14;;;;;;;64.72;35.97;;;5.80;99.90;;;;;;5018412;28;20514;-74
2021/11/16 08:50:44;;;;;;;66.05;36.40;;;5.80;99.90;;;;;;5019048;28;20034;-75
2021/11/16 08:53:21;;;;;;;63.80;38.53;;;5.90;99.90;;;;;;5025333;28;20492;-75
2021/11/16 08:55:47;;;;;;;59.33;34.33;;;5.90;99.90;;;;;;5025150;28;20033;-75
2021/11/16 08:58:14;;;;;;;57.30;35.42;;;5.80;99.90;;;;;;5017116;28;20373;-74
2021/11/16 09:00:52;;;;;;;65.20;38.67;;;5.90;99.90;;;;;;5016870;28;20034;-75
2021/11/16 09:03:29;;;;;;;67.13;39.22;;;6.00;99.90;;;;;;5019814;28;20018;-74
2021/11/16 09:05:57;;;;;;;63.90;37.08;;;6.10;99.90;;;;;;5029260;28;20032;-74
2021/11/16 09:08:27;;;;;;;62.15;35.45;;;6.00;99.90;;;;;;5021074;28;20066;-74
2021/11/16 09:10:58;;;;;;;61.70;36.05;;;6.00;99.90;;;;;;5017166;28;20142;-74
2021/11/16 09:13:27;;;;;;;60.92;34.85;;;5.90;99.90;;;;;;5020962;28;20040;-75
2021/11/16 09:15:55;;;;;;;60.67;35.92;;;5.90;99.90;;;;;;5025179;28;20025;-74
2021/11/16 09:18:29;;;;;;;63.58;34.85;;;5.90;99.90;;;;;;5022717;28;20507;-75
2021/11/16 09:21:01;;;;;;;58.05;34.28;;;6.00;99.90;;;;;;5016645;28;20051;-74
2021/11/16 09:23:33;;;;;;;63.95;36.38;;;5.90;99.90;;;;;;5018073;28;20050;-74
2021/11/16 09:26:36;;;;;;;58.88;36.05;;;5.90;99.90;;;;;;5022546;28;20108;-75
2021/11/16 09:29:18;;;;;;;59.60;35.42;;;6.20;99.90;;;;;;5023690;28;20026;-75
2021/11/16 09:32:01;;;;;;;62.08;36.60;;;6.30;99.90;;;;;;5025210;28;20030;-74
2021/11/16 09:34:30;;;;;;;60.92;36.35;;;6.40;99.90;;;;;;5012274;28;20030;-74
2021/11/16 09:36:58;;;;;;;57.63;34.97;;;6.40;99.90;;;;;;5033706;28;20388;-74
2021/11/16 09:39:38;;;;;;;59.78;34.65;;;6.30;99.90;;;;;;5022743;28;20025;-75
2021/11/16 09:42:07;;;;;;;57.80;34.20;;;6.30;99.90;;;;;;5022142;28;20080;-74
2021/11/16 09:44:44;;;;;;;59.17;33.78;;;6.30;99.90;;;;;;5021686;28;20018;-74
2021/11/16 09:47:23;;;;;;;59.85;35.13;;;6.30;99.90;;;;;;5025692;28;20018;-74
2021/11/16 09:49:51;;;;;;;62.28;36.45;;;6.40;99.90;;;;;;5028395;28;20025;-74
2021/11/16 09:52:29;;;;;;;59.88;34.40;;;6.40;99.90;;;;;;5026256;28;20032;-74
2021/11/16 09:55:10;;;;;;;59.47;34.58;;;6.30;99.90;;;;;;5027570;28;20033;-74
2021/11/16 09:57:39;;;;;;;55.75;34.22;;;6.40;99.90;;;;;;5030009;28;20065;-74
2021/11/16 10:00:08;;;;;;;65.45;40.65;;;6.50;99.90;;;;;;5025132;28;20088;-74
2021/11/16 10:02:35;;;;;;;61.90;34.65;;;6.60;99.90;;;;;;5028045;28;20101;-74
2021/11/16 10:05:07;;;;;;;58.28;33.58;;;6.70;99.90;;;;;;5023201;28;20021;-74
2021/11/16 10:07:36;;;;;;;60.28;34.80;;;6.70;99.90;;;;;;5021272;28;20037;-74
2021/11/16 10:10:04;;;;;;;55.58;33.47;;;6.70;99.90;;;;;;5023957;28;20030;-74
2021/11/16 10:12:42;;;;;;;54.55;33.05;;;6.80;99.90;;;;;;5030455;28;20468;-74
2021/11/16 10:15:09;;;;;;;53.47;32.53;;;6.80;99.90;;;;;;5020937;28;20072;-74
2021/11/16 10:17:35;;;;;;;56.53;33.75;;;7.00;99.90;;;;;;5026793;28;20095;-74
2021/11/16 10:20:01;;;;;;;59.35;33.72;;;7.10;99.90;;;;;;5026024;28;20487;-75
2021/11/16 10:22:28;;;;;;;55.50;33.83;;;7.10;99.90;;;;;;5021344;28;20455;-74
2021/11/16 10:25:13;;;;;;;55.60;34.45;;;7.20;99.90;;;;;;5034850;28;20021;-74
2021/11/16 10:27:39;;;;;;;54.10;33.83;;;7.10;99.90;;;;;;5022944;28;20056;-75
2021/11/16 10:30:16;;;;;;;57.85;34.38;;;7.10;99.90;;;;;;5022211;28;20056;-75
2021/11/16 10:32:46;;;;;;;55.20;32.67;;;7.30;99.90;;;;;;5040682;28;20033;-75
2021/11/16 10:35:18;;;;;;;55.92;34.90;;;7.30;99.90;;;;;;5031797;28;20619;-75
2021/11/16 10:37:54;;;;;;;55.47;34.53;;;7.20;99.90;;;;;;5034081;28;20037;-75
2021/11/16 10:40:21;;;;;;;57.45;33.83;;;7.10;99.90;;;;;;5027475;28;20026;-75
2021/11/16 10:42:51;;;;;;;57.30;33.33;;;7.20;99.90;;;;;;5014152;28;20638;-75
2021/11/16 10:45:19;;;;;;;51.38;31.80;;;7.30;99.90;;;;;;5033466;28;20030;-74
2021/11/16 10:47:46;;;;;;;55.75;34.05;;;7.30;99.90;;;;;;5019164;28;20032;-75
2021/11/16 10:50:15;;;;;;;58.05;34.08;;;7.20;99.90;;;;;;5026408;28;20025;-75
2021/11/16 10:52:41;;;;;;;56.25;35.28;;;7.00;99.90;;;;;;5027970;28;20100;-75
2021/11/16 10:55:08;;;;;;;58.10;38.30;;;7.20;99.90;;;;;;5024382;28;20164;-75
2021/11/16 10:57:54;;;;;;;51.22;33.17;;;7.10;99.90;;;;;;5026368;28;20552;-75
2021/11/16 11:00:54;;;;;;;58.47;33.85;;;7.00;99.90;;;;;;5024261;28;20025;-75
2021/11/16 11:03:23;;;;;;;56.15;33.88;;;7.10;99.90;;;;;;5030667;28;20018;-75
2021/11/16 11:05:54;;;;;;;56.05;33.55;;;6.90;99.90;;;;;;5039038;28;20430;-75
2021/11/16 11:08:33;;;;;;;57.55;35.67;;;6.80;99.90;;;;;;5043316;28;20092;-75
2021/11/16 11:11:01;;;;;;;59.70;35.00;;;7.00;99.90;;;;;;5042891;28;20396;-75
2021/11/16 11:13:28;;;;;;;57.25;33.90;;;7.00;99.90;;;;;;5037964;28;20025;-76
2021/11/16 11:15:56;;;;;;;57.13;33.42;;;6.80;99.90;;;;;;5042838;28;20041;-75
2021/11/16 11:18:36;;;;;;;59.72;35.13;;;6.80;99.90;;;;;;5046386;28;20021;-75
2021/11/16 11:21:04;;;;;;;58.72;33.33;;;6.80;99.90;;;;;;5037024;28;20369;-75
2021/11/16 11:23:38;;;;;;;57.47;34.90;;;6.80;99.90;;;;;;5040327;28;20379;-75
2021/11/16 11:26:18;;;;;;;53.10;33.88;;;6.80;99.90;;;;;;5048194;28;20021;-75
2021/11/16 11:28:53;;;;;;;56.78;33.83;;;6.80;99.90;;;;;;5031354;28;20096;-75
2021/11/16 11:31:26;;;;;;;53.42;33.63;;;6.90;99.90;;;;;;5041279;28;20159;-75
2021/11/16 11:33:52;;;;;;;54.40;34.00;;;6.90;99.90;;;;;;5047917;28;20021;-75
2021/11/16 11:36:22;;;;;;;58.67;33.50;;;6.80;99.90;;;;;;5041806;28;20021;-75
2021/11/16 11:38:48;;;;;;;55.03;33.40;;;6.70;99.90;;;;;;5044779;28;20155;-75
2021/11/16 11:41:14;;;;;;;55.67;33.97;;;6.80;99.90;;;;;;5039915;28;20077;-75
2021/11/16 11:43:40;;;;;;;56.03;34.13;;;6.90;99.90;;;;;;5042404;28;20046;-75
2021/11/16 11:46:05;;;;;;;60.70;35.00;;;6.90;99.90;;;;;;5043278;28;20064;-75
2021/11/16 11:48:31;;;;;;;59.53;34.40;;;6.90;99.90;;;;;;5043940;28;20714;-75
2021/11/16 11:51:00;;;;;;;56.28;33.92;;;6.80;99.90;;;;;;5037130;28;20037;-75
2021/11/16 11:53:31;;;;;;;57.03;32.80;;;6.90;99.90;;;;;;5042361;28;20041;-74
2021/11/16 11:56:06;;;;;;;55.88;33.20;;;6.90;99.90;;;;;;5042785;28;20020;-74
2021/11/16 11:58:36;;;;;;;58.05;34.97;;;6.90;99.90;;;;;;5041613;28;20040;-75
2021/11/16 12:01:07;;;;;;;59.58;34.45;;;6.90;99.90;;;;;;5043070;28;20508;-75
2021/11/16 12:03:33;;;;;;;58.30;34.22;;;7.00;99.90;;;;;;5035637;28;20017;-75
2021/11/16 12:05:59;;;;;;;54.85;33.30;;;6.90;99.90;;;;;;5043510;28;20018;-75
2021/11/16 12:08:25;;;;;;;61.03;36.15;;;6.90;99.90;;;;;;5049463;28;20422;-75
2021/11/16 12:10:52;;;;;;;53.70;33.65;;;6.90;99.90;;;;;;5041260;28;20033;-74
2021/11/16 12:13:23;;;;;;;56.80;33.30;;;7.00;99.90;;;;;;5039623;28;20016;-75
2021/11/16 12:16:12;;;;;;;57.03;35.08;;;7.00;99.90;;;;;;5033542;28;20027;-75
2021/11/16 12:18:43;;;;;;;57.35;34.17;;;7.10;99.90;;;;;;5034724;28;20018;-74
2021/11/16 12:21:29;;;;;;;64.43;35.65;;;7.00;99.90;;;;;;5040818;28;20021;-75
2021/11/16 12:23:58;;;;;;;57.60;34.50;;;7.00;99.90;;;;;;5035856;28;20376;-75
2021/11/16 12:26:27;;;;;;;57.35;34.30;;;7.00;99.90;;;;;;5041426;28;20026;-75
2021/11/16 12:28:52;;;;;;;62.65;34.67;;;6.90;99.90;;;;;;5042174;28;20435;-75
2021/11/16 12:31:26;;;;;;;57.08;34.58;;;7.00;99.90;;;;;;5037551;28;20057;-74
2021/11/16 12:33:53;;;;;;;57.05;34.22;;;6.90;99.90;;;;;;5033120;28;20025;-75
2021/11/16 12:36:43;;;;;;;58.58;35.00;;;6.90;99.90;;;;;;5032309;28;20018;-75
2021/11/16 12:39:22;;;;;;;59.42;34.75;;;6.90;99.90;;;;;;5021724;28;20539;-75
2021/11/16 12:41:51;;;;;;;59.58;34.10;;;7.10;99.90;;;;;;5023975;28;20048;-75
2021/11/16 12:44:50;;;;;;;60.83;35.38;;;7.10;99.90;;;;;;5024168;28;20017;-75
2021/11/16 12:47:16;;;;;;;56.75;34.67;;;7.10;99.90;;;;;;5029999;28;20033;-74
2021/11/16 12:49:45;;;;;;;59.75;33.85;;;7.00;99.90;;;;;;5018434;28;20057;-75
2021/11/16 12:52:20;;;;;;;57.90;33.65;;;7.10;99.90;;;;;;5031637;28;20021;-74
2021/11/16 12:54:46;;;;;;;56.63;34.55;;;7.20;99.90;;;;;;5014095;28;20068;-75
2021/11/16 12:57:19;;;;;;;60.05;34.03;;;7.20;99.90;;;;;;5011803;28;20373;-75
2021/11/16 12:59:44;;;;;;;57.60;35.10;;;7.10;99.90;;;;;;5017280;28;20028;-74
2021/11/16 13:02:36;;;;;;;57.88;33.83;;;7.10;99.90;;;;;;5019154;28;20025;-75
2021/11/16 13:05:06;;;;;;;55.08;33.22;;;7.00;99.90;;;;;;5036247;28;20038;-75
2021/11/16 13:07:52;;;;;;;62.20;35.65;;;6.90;99.90;;;;;;5031920;28;20089;-75
2021/11/16 13:10:23;;;;;;;55.50;33.35;;;6.80;99.90;;;;;;5023494;28;20046;-75
2021/11/16 13:13:13;;;;;;;60.58;34.60;;;6.80;99.90;;;;;;5035465;28;20379;-74